sensor_id;sensor_type;location;lat;lon;timestamp;P1;durP1;ratioP1;P2;durP2;ratioP2
38972;SDS011;25333;50.762;4.470;2022-12-24T00:00:03;15.63;;;5.63;;
38972;SDS011;25333;50.762;4.470;2022-12-24T00:02:30;22.52;;;5.95;;
38972;SDS011;25333;50.762;4.470;2022-12-24T00:04:56;22.90;;;5.80;;
38972;SDS011;25333;50.762;4.470;2022-12-24T00:07:21;16.35;;;4.10;;
38972;SDS011;25333;50.762;4.470;2022-12-24T00:09:47;21.10;;;5.87;;
38972;SDS011;25333;50.762;4.470;2022-12-24T00:12:12;13.75;;;4.75;;
38972;SDS011;25333;50.762;4.470;2022-12-24T00:14:47;20.13;;;5.40;;
38972;SDS011;25333;50.762;4.470;2022-12-24T00:17:13;18.95;;;5.07;;
38972;SDS011;25333;50.762;4.470;2022-12-24T00:19:41;21.40;;;5.28;;
38972;SDS011;25333;50.762;4.470;2022-12-24T00:22:10;15.25;;;4.85;;
38972;SDS011;25333;50.762;4.470;2022-12-24T00:24:36;17.80;;;5.33;;
38972;SDS011;25333;50.762;4.470;2022-12-24T00:27:02;19.50;;;5.93;;
38972;SDS011;25333;50.762;4.470;2022-12-24T00:29:29;21.35;;;5.25;;
38972;SDS011;25333;50.762;4.470;2022-12-24T00:31:55;22.65;;;6.43;;
38972;SDS011;25333;50.762;4.470;2022-12-24T00:34:22;20.92;;;5.75;;
38972;SDS011;25333;50.762;4.470;2022-12-24T00:36:48;22.40;;;6.25;;
38972;SDS011;25333;50.762;4.470;2022-12-24T00:39:14;27.83;;;6.22;;
38972;SDS011;25333;50.762;4.470;2022-12-24T00:41:40;23.03;;;5.60;;
38972;SDS011;25333;50.762;4.470;2022-12-24T00:44:06;22.80;;;5.97;;
38972;SDS011;25333;50.762;4.470;2022-12-24T00:46:37;21.90;;;4.97;;
38972;SDS011;25333;50.762;4.470;2022-12-24T00:49:03;23.85;;;5.97;;
38972;SDS011;25333;50.762;4.470;2022-12-24T00:51:30;21.17;;;4.90;;
38972;SDS011;25333;50.762;4.470;2022-12-24T00:53:56;25.48;;;6.05;;
38972;SDS011;25333;50.762;4.470;2022-12-24T00:56:22;27.83;;;6.23;;
38972;SDS011;25333;50.762;4.470;2022-12-24T00:58:47;18.80;;;5.45;;
38972;SDS011;25333;50.762;4.470;2022-12-24T01:01:13;26.27;;;5.27;;
38972;SDS011;25333;50.762;4.470;2022-12-24T01:03:39;23.75;;;5.60;;
38972;SDS011;25333;50.762;4.470;2022-12-24T01:06:07;22.08;;;5.15;;
38972;SDS011;25333;50.762;4.470;2022-12-24T01:08:37;23.13;;;5.73;;
38972;SDS011;25333;50.762;4.470;2022-12-24T01:11:04;23.63;;;5.30;;
38972;SDS011;25333;50.762;4.470;2022-12-24T01:13:31;17.60;;;6.07;;
38972;SDS011;25333;50.762;4.470;2022-12-24T01:15:56;20.92;;;5.40;;
38972;SDS011;25333;50.762;4.470;2022-12-24T01:18:22;19.10;;;5.38;;
38972;SDS011;25333;50.762;4.470;2022-12-24T01:20:56;14.05;;;4.47;;
38972;SDS011;25333;50.762;4.470;2022-12-24T01:23:23;20.88;;;4.43;;
38972;SDS011;25333;50.762;4.470;2022-12-24T01:25:49;22.88;;;5.25;;
38972;SDS011;25333;50.762;4.470;2022-12-24T01:28:14;24.37;;;5.20;;
38972;SDS011;25333;50.762;4.470;2022-12-24T01:30:40;17.40;;;5.53;;
38972;SDS011;25333;50.762;4.470;2022-12-24T01:33:06;18.73;;;5.80;;
38972;SDS011;25333;50.762;4.470;2022-12-24T01:35:31;19.05;;;5.53;;
38972;SDS011;25333;50.762;4.470;2022-12-24T01:37:57;25.47;;;6.37;;
38972;SDS011;25333;50.762;4.470;2022-12-24T01:40:24;21.15;;;5.85;;
38972;SDS011;25333;50.762;4.470;2022-12-24T01:43:28;19.77;;;5.05;;
38972;SDS011;25333;50.762;4.470;2022-12-24T01:48:28;19.95;;;6.00;;
38972;SDS011;25333;50.762;4.470;2022-12-24T01:51:47;18.30;;;5.47;;
38972;SDS011;25333;50.762;4.470;2022-12-24T01:53:57;23.15;;;6.05;;
38972;SDS011;25333;50.762;4.470;2022-12-24T01:56:27;17.65;;;5.00;;
38972;SDS011;25333;50.762;4.470;2022-12-24T01:58:55;23.48;;;6.47;;
38972;SDS011;25333;50.762;4.470;2022-12-24T02:01:26;17.58;;;5.70;;
38972;SDS011;25333;50.762;4.470;2022-12-24T02:03:51;24.40;;;5.90;;
38972;SDS011;25333;50.762;4.470;2022-12-24T02:06:17;18.90;;;4.73;;
38972;SDS011;25333;50.762;4.470;2022-12-24T02:08:44;22.27;;;5.50;;
38972;SDS011;25333;50.762;4.470;2022-12-24T02:11:16;14.50;;;4.93;;
38972;SDS011;25333;50.762;4.470;2022-12-24T02:13:45;17.60;;;5.55;;
38972;SDS011;25333;50.762;4.470;2022-12-24T02:16:20;23.80;;;5.63;;
38972;SDS011;25333;50.762;4.470;2022-12-24T02:27:41;20.80;;;4.70;;
38972;SDS011;25333;50.762;4.470;2022-12-24T02:30:40;21.60;;;4.85;;
38972;SDS011;25333;50.762;4.470;2022-12-24T02:33:14;16.35;;;4.40;;
38972;SDS011;25333;50.762;4.470;2022-12-24T02:36:10;16.35;;;5.45;;
38972;SDS011;25333;50.762;4.470;2022-12-24T02:41:14;15.73;;;4.47;;
38972;SDS011;25333;50.762;4.470;2022-12-24T02:43:44;19.63;;;3.97;;
38972;SDS011;25333;50.762;4.470;2022-12-24T02:46:13;16.42;;;3.70;;
38972;SDS011;25333;50.762;4.470;2022-12-24T02:48:43;13.07;;;4.35;;
38972;SDS011;25333;50.762;4.470;2022-12-24T02:51:10;16.90;;;4.28;;
38972;SDS011;25333;50.762;4.470;2022-12-24T02:53:36;16.00;;;5.00;;
38972;SDS011;25333;50.762;4.470;2022-12-24T03:01:30;24.90;;;5.65;;
38972;SDS011;25333;50.762;4.470;2022-12-24T03:04:21;18.85;;;4.68;;
38972;SDS011;25333;50.762;4.470;2022-12-24T03:10:18;21.13;;;4.97;;
38972;SDS011;25333;50.762;4.470;2022-12-24T03:12:49;15.88;;;4.50;;
38972;SDS011;25333;50.762;4.470;2022-12-24T03:15:18;22.70;;;6.22;;
38972;SDS011;25333;50.762;4.470;2022-12-24T03:17:46;16.33;;;5.43;;
38972;SDS011;25333;50.762;4.470;2022-12-24T03:20:14;24.73;;;5.70;;
38972;SDS011;25333;50.762;4.470;2022-12-24T03:22:44;21.25;;;5.22;;
38972;SDS011;25333;50.762;4.470;2022-12-24T03:25:10;18.27;;;5.18;;
38972;SDS011;25333;50.762;4.470;2022-12-24T03:27:36;27.47;;;6.77;;
38972;SDS011;25333;50.762;4.470;2022-12-24T03:30:03;24.48;;;6.03;;
38972;SDS011;25333;50.762;4.470;2022-12-24T03:32:34;21.38;;;6.45;;
38972;SDS011;25333;50.762;4.470;2022-12-24T03:35:00;22.37;;;7.13;;
38972;SDS011;25333;50.762;4.470;2022-12-24T03:37:25;18.90;;;6.22;;
38972;SDS011;25333;50.762;4.470;2022-12-24T03:39:51;19.13;;;5.10;;
38972;SDS011;25333;50.762;4.470;2022-12-24T03:42:17;17.93;;;6.23;;
38972;SDS011;25333;50.762;4.470;2022-12-24T03:44:43;24.73;;;5.50;;
38972;SDS011;25333;50.762;4.470;2022-12-24T03:47:08;21.53;;;5.87;;
38972;SDS011;25333;50.762;4.470;2022-12-24T03:49:34;25.15;;;6.30;;
38972;SDS011;25333;50.762;4.470;2022-12-24T03:52:00;30.20;;;6.33;;
38972;SDS011;25333;50.762;4.470;2022-12-24T03:54:25;17.42;;;4.97;;
38972;SDS011;25333;50.762;4.470;2022-12-24T03:56:51;24.53;;;6.43;;
38972;SDS011;25333;50.762;4.470;2022-12-24T03:59:17;17.88;;;5.88;;
38972;SDS011;25333;50.762;4.470;2022-12-24T04:01:42;26.33;;;6.50;;
38972;SDS011;25333;50.762;4.470;2022-12-24T04:04:08;20.75;;;5.25;;
38972;SDS011;25333;50.762;4.470;2022-12-24T04:06:33;19.43;;;5.03;;
38972;SDS011;25333;50.762;4.470;2022-12-24T04:08:59;25.77;;;6.03;;
38972;SDS011;25333;50.762;4.470;2022-12-24T04:11:28;20.00;;;5.88;;
38972;SDS011;25333;50.762;4.470;2022-12-24T04:13:55;17.13;;;6.03;;
38972;SDS011;25333;50.762;4.470;2022-12-24T04:16:21;25.75;;;5.78;;
38972;SDS011;25333;50.762;4.470;2022-12-24T04:18:46;30.27;;;6.43;;
38972;SDS011;25333;50.762;4.470;2022-12-24T04:21:12;21.35;;;6.00;;
38972;SDS011;25333;50.762;4.470;2022-12-24T04:23:38;25.73;;;4.73;;
38972;SDS011;25333;50.762;4.470;2022-12-24T04:26:05;22.88;;;6.82;;
38972;SDS011;25333;50.762;4.470;2022-12-24T04:28:32;20.55;;;5.70;;
38972;SDS011;25333;50.762;4.470;2022-12-24T04:30:59;19.35;;;5.55;;
38972;SDS011;25333;50.762;4.470;2022-12-24T04:33:26;27.35;;;6.80;;
38972;SDS011;25333;50.762;4.470;2022-12-24T04:35:51;24.75;;;5.97;;
38972;SDS011;25333;50.762;4.470;2022-12-24T04:38:17;22.90;;;6.00;;
38972;SDS011;25333;50.762;4.470;2022-12-24T04:40:43;25.67;;;6.35;;
38972;SDS011;25333;50.762;4.470;2022-12-24T04:43:08;18.70;;;5.93;;
38972;SDS011;25333;50.762;4.470;2022-12-24T04:45:34;27.77;;;6.68;;
38972;SDS011;25333;50.762;4.470;2022-12-24T04:48:00;27.93;;;6.47;;
38972;SDS011;25333;50.762;4.470;2022-12-24T04:50:25;21.17;;;5.82;;
38972;SDS011;25333;50.762;4.470;2022-12-24T04:52:51;24.13;;;6.77;;
38972;SDS011;25333;50.762;4.470;2022-12-24T04:55:17;22.52;;;6.35;;
38972;SDS011;25333;50.762;4.470;2022-12-24T04:57:42;24.57;;;6.73;;
38972;SDS011;25333;50.762;4.470;2022-12-24T05:00:08;24.35;;;6.93;;
38972;SDS011;25333;50.762;4.470;2022-12-24T05:02:35;30.92;;;6.90;;
38972;SDS011;25333;50.762;4.470;2022-12-24T05:05:00;18.73;;;5.88;;
38972;SDS011;25333;50.762;4.470;2022-12-24T05:07:27;19.92;;;5.75;;
38972;SDS011;25333;50.762;4.470;2022-12-24T05:09:52;24.80;;;6.43;;
38972;SDS011;25333;50.762;4.470;2022-12-24T05:12:18;24.25;;;6.20;;
38972;SDS011;25333;50.762;4.470;2022-12-24T05:14:43;22.90;;;6.80;;
38972;SDS011;25333;50.762;4.470;2022-12-24T05:17:09;26.60;;;7.30;;
38972;SDS011;25333;50.762;4.470;2022-12-24T05:19:35;27.97;;;5.93;;
38972;SDS011;25333;50.762;4.470;2022-12-24T05:22:00;21.38;;;5.55;;
38972;SDS011;25333;50.762;4.470;2022-12-24T05:24:44;17.70;;;5.20;;
38972;SDS011;25333;50.762;4.470;2022-12-24T05:27:28;18.05;;;5.47;;
38972;SDS011;25333;50.762;4.470;2022-12-24T05:29:54;23.80;;;6.33;;
38972;SDS011;25333;50.762;4.470;2022-12-24T05:32:19;24.23;;;6.35;;
38972;SDS011;25333;50.762;4.470;2022-12-24T05:34:45;25.43;;;5.83;;
38972;SDS011;25333;50.762;4.470;2022-12-24T05:37:11;17.92;;;5.85;;
38972;SDS011;25333;50.762;4.470;2022-12-24T05:39:36;24.37;;;5.70;;
38972;SDS011;25333;50.762;4.470;2022-12-24T05:42:02;17.42;;;5.40;;
38972;SDS011;25333;50.762;4.470;2022-12-24T05:44:27;20.33;;;6.43;;
38972;SDS011;25333;50.762;4.470;2022-12-24T05:46:53;21.83;;;6.55;;
38972;SDS011;25333;50.762;4.470;2022-12-24T05:49:19;24.70;;;5.47;;
38972;SDS011;25333;50.762;4.470;2022-12-24T05:51:46;20.23;;;4.80;;
38972;SDS011;25333;50.762;4.470;2022-12-24T05:54:12;25.35;;;5.53;;
38972;SDS011;25333;50.762;4.470;2022-12-24T05:56:37;24.50;;;5.87;;
38972;SDS011;25333;50.762;4.470;2022-12-24T05:59:03;19.08;;;5.35;;
38972;SDS011;25333;50.762;4.470;2022-12-24T06:01:28;22.20;;;7.00;;
38972;SDS011;25333;50.762;4.470;2022-12-24T06:03:55;22.65;;;5.68;;
38972;SDS011;25333;50.762;4.470;2022-12-24T06:06:25;24.02;;;6.43;;
38972;SDS011;25333;50.762;4.470;2022-12-24T06:08:52;23.00;;;6.05;;
38972;SDS011;25333;50.762;4.470;2022-12-24T06:11:19;26.33;;;6.43;;
38972;SDS011;25333;50.762;4.470;2022-12-24T06:13:47;26.65;;;5.18;;
38972;SDS011;25333;50.762;4.470;2022-12-24T06:16:14;17.70;;;5.60;;
38972;SDS011;25333;50.762;4.470;2022-12-24T06:18:41;20.27;;;6.03;;
38972;SDS011;25333;50.762;4.470;2022-12-24T06:21:07;19.30;;;5.72;;
38972;SDS011;25333;50.762;4.470;2022-12-24T06:23:34;31.80;;;6.03;;
38972;SDS011;25333;50.762;4.470;2022-12-24T06:26:01;28.65;;;6.55;;
38972;SDS011;25333;50.762;4.470;2022-12-24T06:28:31;25.33;;;5.78;;
38972;SDS011;25333;50.762;4.470;2022-12-24T06:30:58;26.05;;;5.68;;
38972;SDS011;25333;50.762;4.470;2022-12-24T06:33:27;25.60;;;6.50;;
38972;SDS011;25333;50.762;4.470;2022-12-24T06:35:53;25.63;;;5.80;;
38972;SDS011;25333;50.762;4.470;2022-12-24T06:38:19;20.67;;;6.05;;
38972;SDS011;25333;50.762;4.470;2022-12-24T06:40:46;21.58;;;6.43;;
38972;SDS011;25333;50.762;4.470;2022-12-24T06:43:12;21.77;;;5.15;;
38972;SDS011;25333;50.762;4.470;2022-12-24T06:45:38;18.67;;;5.57;;
38972;SDS011;25333;50.762;4.470;2022-12-24T06:48:08;24.17;;;6.45;;
38972;SDS011;25333;50.762;4.470;2022-12-24T06:50:33;21.20;;;5.93;;
38972;SDS011;25333;50.762;4.470;2022-12-24T06:52:59;22.43;;;6.13;;
38972;SDS011;25333;50.762;4.470;2022-12-24T06:55:24;20.48;;;6.10;;
38972;SDS011;25333;50.762;4.470;2022-12-24T06:57:50;32.83;;;6.63;;
38972;SDS011;25333;50.762;4.470;2022-12-24T07:00:16;20.40;;;5.38;;
38972;SDS011;25333;50.762;4.470;2022-12-24T07:02:42;26.40;;;7.00;;
38972;SDS011;25333;50.762;4.470;2022-12-24T07:05:09;32.95;;;7.28;;
38972;SDS011;25333;50.762;4.470;2022-12-24T07:07:36;25.10;;;5.95;;
38972;SDS011;25333;50.762;4.470;2022-12-24T07:10:03;20.67;;;5.40;;
38972;SDS011;25333;50.762;4.470;2022-12-24T07:12:29;24.40;;;6.38;;
38972;SDS011;25333;50.762;4.470;2022-12-24T07:14:54;26.88;;;6.50;;
38972;SDS011;25333;50.762;4.470;2022-12-24T07:17:20;19.63;;;5.47;;
38972;SDS011;25333;50.762;4.470;2022-12-24T07:19:45;19.65;;;6.25;;
38972;SDS011;25333;50.762;4.470;2022-12-24T07:22:11;20.07;;;6.40;;
38972;SDS011;25333;50.762;4.470;2022-12-24T07:24:37;19.92;;;6.10;;
38972;SDS011;25333;50.762;4.470;2022-12-24T07:27:02;20.17;;;5.43;;
38972;SDS011;25333;50.762;4.470;2022-12-24T07:29:28;19.45;;;6.03;;
38972;SDS011;25333;50.762;4.470;2022-12-24T07:31:54;21.50;;;5.87;;
38972;SDS011;25333;50.762;4.470;2022-12-24T07:34:20;22.35;;;5.97;;
38972;SDS011;25333;50.762;4.470;2022-12-24T07:36:53;19.45;;;5.93;;
38972;SDS011;25333;50.762;4.470;2022-12-24T07:39:19;21.80;;;5.47;;
38972;SDS011;25333;50.762;4.470;2022-12-24T07:41:45;23.00;;;5.95;;
38972;SDS011;25333;50.762;4.470;2022-12-24T07:44:46;20.25;;;6.38;;
38972;SDS011;25333;50.762;4.470;2022-12-24T07:47:19;20.88;;;5.78;;
38972;SDS011;25333;50.762;4.470;2022-12-24T07:49:45;23.35;;;5.32;;
38972;SDS011;25333;50.762;4.470;2022-12-24T07:52:19;21.33;;;6.00;;
38972;SDS011;25333;50.762;4.470;2022-12-24T07:54:47;27.55;;;6.65;;
38972;SDS011;25333;50.762;4.470;2022-12-24T07:57:23;23.20;;;6.57;;
38972;SDS011;25333;50.762;4.470;2022-12-24T07:59:49;19.67;;;5.28;;
38972;SDS011;25333;50.762;4.470;2022-12-24T08:02:15;21.50;;;5.53;;
38972;SDS011;25333;50.762;4.470;2022-12-24T08:04:40;20.95;;;5.45;;
38972;SDS011;25333;50.762;4.470;2022-12-24T08:07:07;22.85;;;6.30;;
38972;SDS011;25333;50.762;4.470;2022-12-24T08:09:36;21.23;;;5.65;;
38972;SDS011;25333;50.762;4.470;2022-12-24T08:12:03;25.08;;;6.75;;
38972;SDS011;25333;50.762;4.470;2022-12-24T08:14:30;23.58;;;6.15;;
38972;SDS011;25333;50.762;4.470;2022-12-24T08:16:56;30.03;;;6.77;;
38972;SDS011;25333;50.762;4.470;2022-12-24T08:19:22;25.30;;;6.15;;
38972;SDS011;25333;50.762;4.470;2022-12-24T08:21:50;30.10;;;6.97;;
38972;SDS011;25333;50.762;4.470;2022-12-24T08:24:18;32.83;;;7.53;;
38972;SDS011;25333;50.762;4.470;2022-12-24T08:26:44;24.02;;;6.90;;
38972;SDS011;25333;50.762;4.470;2022-12-24T08:29:10;22.50;;;6.10;;
38972;SDS011;25333;50.762;4.470;2022-12-24T08:31:40;27.27;;;6.43;;
38972;SDS011;25333;50.762;4.470;2022-12-24T08:34:09;28.02;;;6.30;;
38972;SDS011;25333;50.762;4.470;2022-12-24T08:36:35;22.08;;;5.75;;
38972;SDS011;25333;50.762;4.470;2022-12-24T08:39:01;22.58;;;6.50;;
38972;SDS011;25333;50.762;4.470;2022-12-24T08:41:32;22.35;;;5.10;;
38972;SDS011;25333;50.762;4.470;2022-12-24T08:43:59;25.05;;;6.82;;
38972;SDS011;25333;50.762;4.470;2022-12-24T08:46:26;30.52;;;6.40;;
38972;SDS011;25333;50.762;4.470;2022-12-24T08:48:52;30.80;;;6.80;;
38972;SDS011;25333;50.762;4.470;2022-12-24T08:51:17;22.03;;;5.83;;
38972;SDS011;25333;50.762;4.470;2022-12-24T08:53:44;23.20;;;6.35;;
38972;SDS011;25333;50.762;4.470;2022-12-24T08:56:10;25.88;;;6.38;;
38972;SDS011;25333;50.762;4.470;2022-12-24T08:58:36;24.75;;;6.18;;
38972;SDS011;25333;50.762;4.470;2022-12-24T09:01:08;18.83;;;5.40;;
38972;SDS011;25333;50.762;4.470;2022-12-24T09:03:36;26.83;;;6.15;;
38972;SDS011;25333;50.762;4.470;2022-12-24T09:06:02;24.55;;;6.97;;
38972;SDS011;25333;50.762;4.470;2022-12-24T09:08:28;21.60;;;6.07;;
38972;SDS011;25333;50.762;4.470;2022-12-24T09:10:54;19.65;;;7.20;;
38972;SDS011;25333;50.762;4.470;2022-12-24T09:13:19;26.53;;;6.17;;
38972;SDS011;25333;50.762;4.470;2022-12-24T09:15:53;22.77;;;6.40;;
38972;SDS011;25333;50.762;4.470;2022-12-24T09:18:20;24.03;;;6.10;;
38972;SDS011;25333;50.762;4.470;2022-12-24T09:20:46;16.38;;;6.10;;
38972;SDS011;25333;50.762;4.470;2022-12-24T09:23:11;25.45;;;6.75;;
38972;SDS011;25333;50.762;4.470;2022-12-24T09:25:43;24.50;;;6.77;;
38972;SDS011;25333;50.762;4.470;2022-12-24T09:28:09;17.50;;;6.55;;
38972;SDS011;25333;50.762;4.470;2022-12-24T09:30:37;20.88;;;6.13;;
38972;SDS011;25333;50.762;4.470;2022-12-24T09:33:06;24.70;;;6.90;;
38972;SDS011;25333;50.762;4.470;2022-12-24T09:35:37;23.85;;;6.05;;
38972;SDS011;25333;50.762;4.470;2022-12-24T09:38:07;21.05;;;5.82;;
38972;SDS011;25333;50.762;4.470;2022-12-24T09:40:38;20.33;;;6.10;;
38972;SDS011;25333;50.762;4.470;2022-12-24T09:43:23;21.55;;;6.43;;
38972;SDS011;25333;50.762;4.470;2022-12-24T09:48:47;30.30;;;7.13;;
38972;SDS011;25333;50.762;4.470;2022-12-24T09:51:38;24.33;;;6.03;;
38972;SDS011;25333;50.762;4.470;2022-12-24T09:54:24;29.30;;;7.15;;
38972;SDS011;25333;50.762;4.470;2022-12-24T09:57:28;22.48;;;6.75;;
38972;SDS011;25333;50.762;4.470;2022-12-24T10:00:28;24.35;;;6.07;;
38972;SDS011;25333;50.762;4.470;2022-12-24T10:03:09;29.27;;;6.72;;
38972;SDS011;25333;50.762;4.470;2022-12-24T10:11:55;24.13;;;6.32;;
38972;SDS011;25333;50.762;4.470;2022-12-24T10:20:45;27.95;;;5.85;;
38972;SDS011;25333;50.762;4.470;2022-12-24T10:23:47;25.65;;;6.57;;
38972;SDS011;25333;50.762;4.470;2022-12-24T10:26:42;21.55;;;5.82;;
38972;SDS011;25333;50.762;4.470;2022-12-24T10:29:18;23.08;;;5.78;;
38972;SDS011;25333;50.762;4.470;2022-12-24T10:32:28;17.27;;;5.95;;
38972;SDS011;25333;50.762;4.470;2022-12-24T10:40:29;23.75;;;5.75;;
38972;SDS011;25333;50.762;4.470;2022-12-24T10:42:58;21.35;;;5.63;;
38972;SDS011;25333;50.762;4.470;2022-12-24T10:45:35;18.05;;;5.97;;
38972;SDS011;25333;50.762;4.470;2022-12-24T10:48:07;23.05;;;5.57;;
38972;SDS011;25333;50.762;4.470;2022-12-24T10:51:10;18.67;;;6.50;;
38972;SDS011;25333;50.762;4.470;2022-12-24T10:57:25;21.98;;;5.88;;
38972;SDS011;25333;50.762;4.470;2022-12-24T10:59:54;21.73;;;6.10;;
38972;SDS011;25333;50.762;4.470;2022-12-24T11:02:27;22.17;;;5.67;;
38972;SDS011;25333;50.762;4.470;2022-12-24T11:04:59;30.87;;;6.93;;
38972;SDS011;25333;50.762;4.470;2022-12-24T11:07:27;25.88;;;6.50;;
38972;SDS011;25333;50.762;4.470;2022-12-24T11:09:57;23.73;;;5.03;;
38972;SDS011;25333;50.762;4.470;2022-12-24T11:12:49;18.35;;;6.30;;
38972;SDS011;25333;50.762;4.470;2022-12-24T11:15:17;15.77;;;5.20;;
38972;SDS011;25333;50.762;4.470;2022-12-24T11:17:53;18.33;;;5.93;;
38972;SDS011;25333;50.762;4.470;2022-12-24T11:20:32;18.02;;;5.70;;
38972;SDS011;25333;50.762;4.470;2022-12-24T11:22:59;24.63;;;6.28;;
38972;SDS011;25333;50.762;4.470;2022-12-24T11:25:27;27.85;;;6.43;;
38972;SDS011;25333;50.762;4.470;2022-12-24T11:28:20;28.63;;;6.38;;
38972;SDS011;25333;50.762;4.470;2022-12-24T11:31:07;24.27;;;6.60;;
38972;SDS011;25333;50.762;4.470;2022-12-24T11:33:46;18.30;;;5.95;;
38972;SDS011;25333;50.762;4.470;2022-12-24T11:36:14;21.77;;;4.90;;
38972;SDS011;25333;50.762;4.470;2022-12-24T11:38:50;18.83;;;4.75;;
38972;SDS011;25333;50.762;4.470;2022-12-24T11:41:23;26.50;;;5.85;;
38972;SDS011;25333;50.762;4.470;2022-12-24T11:43:50;21.85;;;5.53;;
38972;SDS011;25333;50.762;4.470;2022-12-24T11:46:41;18.65;;;6.22;;
38972;SDS011;25333;50.762;4.470;2022-12-24T11:52:01;23.00;;;6.25;;
38972;SDS011;25333;50.762;4.470;2022-12-24T11:57:45;24.75;;;6.47;;
38972;SDS011;25333;50.762;4.470;2022-12-24T12:00:25;19.38;;;6.20;;
38972;SDS011;25333;50.762;4.470;2022-12-24T12:02:56;18.55;;;5.70;;
38972;SDS011;25333;50.762;4.470;2022-12-24T12:05:26;15.95;;;4.72;;
38972;SDS011;25333;50.762;4.470;2022-12-24T12:08:19;19.80;;;5.25;;
38972;SDS011;25333;50.762;4.470;2022-12-24T12:10:46;20.63;;;5.57;;
38972;SDS011;25333;50.762;4.470;2022-12-24T12:13:19;17.02;;;5.60;;
38972;SDS011;25333;50.762;4.470;2022-12-24T12:16:13;17.77;;;5.63;;
38972;SDS011;25333;50.762;4.470;2022-12-24T12:18:52;20.60;;;5.25;;
38972;SDS011;25333;50.762;4.470;2022-12-24T12:21:50;21.52;;;5.15;;
38972;SDS011;25333;50.762;4.470;2022-12-24T12:24:38;18.08;;;5.57;;
38972;SDS011;25333;50.762;4.470;2022-12-24T12:27:35;24.05;;;6.07;;
38972;SDS011;25333;50.762;4.470;2022-12-24T12:39:58;18.58;;;5.07;;
38972;SDS011;25333;50.762;4.470;2022-12-24T12:46:20;17.10;;;4.90;;
38972;SDS011;25333;50.762;4.470;2022-12-24T12:49:05;20.23;;;5.00;;
38972;SDS011;25333;50.762;4.470;2022-12-24T13:09:00;22.13;;;5.28;;
38972;SDS011;25333;50.762;4.470;2022-12-24T13:24:04;19.08;;;6.20;;
38972;SDS011;25333;50.762;4.470;2022-12-24T13:30:31;16.83;;;5.18;;
38972;SDS011;25333;50.762;4.470;2022-12-24T13:38:54;20.48;;;5.20;;
38972;SDS011;25333;50.762;4.470;2022-12-24T13:44:02;20.60;;;5.43;;
38972;SDS011;25333;50.762;4.470;2022-12-24T13:56:34;15.65;;;5.40;;
38972;SDS011;25333;50.762;4.470;2022-12-24T14:01:44;18.57;;;5.43;;
38972;SDS011;25333;50.762;4.470;2022-12-24T14:04:20;16.75;;;4.32;;
38972;SDS011;25333;50.762;4.470;2022-12-24T14:06:50;14.25;;;4.28;;
38972;SDS011;25333;50.762;4.470;2022-12-24T14:09:23;15.80;;;4.55;;
38972;SDS011;25333;50.762;4.470;2022-12-24T14:19:56;19.67;;;5.13;;
38972;SDS011;25333;50.762;4.470;2022-12-24T14:22:56;15.30;;;4.18;;
38972;SDS011;25333;50.762;4.470;2022-12-24T14:26:14;11.82;;;4.38;;
38972;SDS011;25333;50.762;4.470;2022-12-24T14:29:21;16.27;;;4.97;;
38972;SDS011;25333;50.762;4.470;2022-12-24T14:32:15;18.73;;;5.43;;
38972;SDS011;25333;50.762;4.470;2022-12-24T14:35:46;16.55;;;4.25;;
38972;SDS011;25333;50.762;4.470;2022-12-24T14:38:48;17.10;;;5.05;;
38972;SDS011;25333;50.762;4.470;2022-12-24T14:44:35;21.50;;;5.10;;
38972;SDS011;25333;50.762;4.470;2022-12-24T14:50:47;18.38;;;4.50;;
38972;SDS011;25333;50.762;4.470;2022-12-24T15:01:01;13.32;;;5.60;;
38972;SDS011;25333;50.762;4.470;2022-12-24T15:13:40;13.65;;;3.75;;
38972;SDS011;25333;50.762;4.470;2022-12-24T15:16:31;10.88;;;4.30;;
38972;SDS011;25333;50.762;4.470;2022-12-24T15:19:53;15.32;;;3.88;;
38972;SDS011;25333;50.762;4.470;2022-12-24T15:22:28;9.68;;;3.83;;
38972;SDS011;25333;50.762;4.470;2022-12-24T15:24:59;14.35;;;3.55;;
38972;SDS011;25333;50.762;4.470;2022-12-24T15:27:45;8.10;;;3.08;;
38972;SDS011;25333;50.762;4.470;2022-12-24T15:30:18;10.13;;;3.05;;
38972;SDS011;25333;50.762;4.470;2022-12-24T15:32:55;12.43;;;3.70;;
38972;SDS011;25333;50.762;4.470;2022-12-24T15:38:30;15.35;;;3.08;;
38972;SDS011;25333;50.762;4.470;2022-12-24T15:41:39;11.50;;;3.23;;
38972;SDS011;25333;50.762;4.470;2022-12-24T15:44:26;9.15;;;3.33;;
38972;SDS011;25333;50.762;4.470;2022-12-24T15:47:37;8.18;;;2.92;;
38972;SDS011;25333;50.762;4.470;2022-12-24T15:51:04;7.72;;;2.45;;
38972;SDS011;25333;50.762;4.470;2022-12-24T16:03:56;9.25;;;2.85;;
38972;SDS011;25333;50.762;4.470;2022-12-24T16:06:24;8.13;;;2.80;;
38972;SDS011;25333;50.762;4.470;2022-12-24T16:12:40;10.85;;;4.15;;
38972;SDS011;25333;50.762;4.470;2022-12-24T16:15:11;6.32;;;2.67;;
38972;SDS011;25333;50.762;4.470;2022-12-24T16:18:39;9.05;;;3.42;;
38972;SDS011;25333;50.762;4.470;2022-12-24T16:21:40;9.15;;;4.00;;
38972;SDS011;25333;50.762;4.470;2022-12-24T16:24:27;9.70;;;4.32;;
38972;SDS011;25333;50.762;4.470;2022-12-24T16:30:57;20.80;;;6.90;;
38972;SDS011;25333;50.762;4.470;2022-12-24T16:34:24;20.80;;;6.28;;
38972;SDS011;25333;50.762;4.470;2022-12-24T16:37:32;19.75;;;6.15;;
38972;SDS011;25333;50.762;4.470;2022-12-24T16:40:21;19.00;;;7.45;;
38972;SDS011;25333;50.762;4.470;2022-12-24T16:42:56;15.18;;;6.18;;
38972;SDS011;25333;50.762;4.470;2022-12-24T16:46:06;11.85;;;5.20;;
38972;SDS011;25333;50.762;4.470;2022-12-24T16:49:14;14.60;;;4.55;;
38972;SDS011;25333;50.762;4.470;2022-12-24T16:52:00;12.75;;;4.85;;
38972;SDS011;25333;50.762;4.470;2022-12-24T16:57:38;9.18;;;3.97;;
38972;SDS011;25333;50.762;4.470;2022-12-24T17:00:26;10.40;;;3.42;;
38972;SDS011;25333;50.762;4.470;2022-12-24T17:03:37;10.57;;;3.63;;
38972;SDS011;25333;50.762;4.470;2022-12-24T17:06:03;5.77;;;3.00;;
38972;SDS011;25333;50.762;4.470;2022-12-24T17:08:53;9.83;;;3.40;;
38972;SDS011;25333;50.762;4.470;2022-12-24T17:11:20;9.35;;;3.30;;
38972;SDS011;25333;50.762;4.470;2022-12-24T17:14:04;9.77;;;3.83;;
38972;SDS011;25333;50.762;4.470;2022-12-24T17:26:45;8.00;;;3.50;;
38972;SDS011;25333;50.762;4.470;2022-12-24T17:29:44;7.57;;;2.65;;
38972;SDS011;25333;50.762;4.470;2022-12-24T17:32:56;7.20;;;3.05;;
38972;SDS011;25333;50.762;4.470;2022-12-24T17:35:25;7.47;;;2.83;;
38972;SDS011;25333;50.762;4.470;2022-12-24T17:38:17;8.25;;;3.30;;
38972;SDS011;25333;50.762;4.470;2022-12-24T17:41:25;11.20;;;3.75;;
38972;SDS011;25333;50.762;4.470;2022-12-24T17:44:28;8.80;;;3.45;;
38972;SDS011;25333;50.762;4.470;2022-12-24T17:47:29;14.50;;;4.97;;
38972;SDS011;25333;50.762;4.470;2022-12-24T17:50:36;10.90;;;5.33;;
38972;SDS011;25333;50.762;4.470;2022-12-24T17:53:22;15.45;;;5.35;;
38972;SDS011;25333;50.762;4.470;2022-12-24T17:55:48;17.93;;;6.13;;
38972;SDS011;25333;50.762;4.470;2022-12-24T17:58:15;14.30;;;6.68;;
38972;SDS011;25333;50.762;4.470;2022-12-24T18:00:47;11.40;;;5.18;;
38972;SDS011;25333;50.762;4.470;2022-12-24T18:03:38;15.63;;;4.80;;
38972;SDS011;25333;50.762;4.470;2022-12-24T18:06:43;12.02;;;5.70;;
38972;SDS011;25333;50.762;4.470;2022-12-24T18:09:32;12.05;;;4.78;;
38972;SDS011;25333;50.762;4.470;2022-12-24T18:12:40;17.58;;;5.82;;
38972;SDS011;25333;50.762;4.470;2022-12-24T18:15:27;15.13;;;4.50;;
38972;SDS011;25333;50.762;4.470;2022-12-24T18:17:57;12.85;;;6.22;;
38972;SDS011;25333;50.762;4.470;2022-12-24T18:20:42;15.68;;;6.97;;
38972;SDS011;25333;50.762;4.470;2022-12-24T18:23:47;13.73;;;5.75;;